• Join FlightAware (Why Join?)
  • Login
  • US Flag 
08:21PM EST


 

Airport Tracker/Info


-or-


 

Live Flight TrackerFlight Track Log ✈ PDT4198 ✈ 16-May-2013 ✈ KCLT - KPGV

Flight Track Log - Related Links

Times and Time Zones

All times are in EDT time to prevent confusion due to time zone crossing. See the PDT4198 flight status page for this flight to view local times or setup timezone preferences in your user account.

Time Position Orientation Groundspeed Altitude Reporting Facility
EDT Latitude Longitude Course Direction KTS MPH feet Rate Location/Type
12:59PM 35.1908 -80.9331 90° East 153 176 1,500  Level Atlanta Center
01:00PM 35.1811 -80.8828 103° East 175 201 2,900 1,380 Climbing Atlanta Center
01:01PM 35.1875 -80.8111 84° East 187 215 4,500 1,080 Climbing Atlanta Center
01:02PM 35.1919 -80.7400 86° East 209 241 5,300 960 Climbing Atlanta Center
01:03PM 35.1956 -80.6458 87° East 228 262 6,900 1,140 Climbing Atlanta Center
01:04PM 35.2000 -80.4692 90° East  Level FlightAware Approximate
01:04PM 35.1975 -80.5644 88° East 228 262 8,100  Level Atlanta Center
01:05PM 35.1975 -80.4881 90° East 228 262 9,400 1,260 Climbing Atlanta Center
01:06PM 35.1992 -80.4067 89° East 228 262 10,700 1,200 Climbing Atlanta Center
01:07PM 35.2011 -80.3278 88° East 228 262 11,800 1,080 Climbing Atlanta Center
01:08PM 35.2008 -80.2492 90° East 228 262 12,900 420 Climbing Atlanta Center
01:10PM 35.2058 -80.0836 88° East 273 314 13,000  Climbing Washington Center
01:11PM 35.2094 -79.9847 87° East 268 308 13,000  Level Washington Center
01:12PM 35.2089 -79.8881 90° East 274 315 13,100  Climbing Washington Center
01:13PM 35.2103 -79.7864 89° East 287 330 13,100  Level Washington Center
01:14PM 35.2139 -79.6875 87° East 287 330 13,100  Level Washington Center
01:15PM 35.2025 -79.5903 98° East 287 330 13,100  Level Washington Center
01:16PM 35.1439 -79.5292 140° Southeast 267 307 13,100  Level Washington Center
01:17PM 35.0789 -79.4803 148° Southeast 278 320 13,100  Level Washington Center
01:18PM 35.0139 -79.4264 146° Southeast 278 320 13,100  Level Washington Center
01:19PM 34.9633 -79.3708 138° Southeast 278 320 13,100  Level Washington Center
01:20PM 34.9625 -79.2694 91° East 253 291 13,100  Level Washington Center
01:21PM 34.9717 -79.1708 84° East 263 303 13,100  Level Washington Center
01:22PM 34.9747 -79.0697 88° East 277 319 13,100  Level Washington Center
01:23PM 34.9819 -78.9558 86° East 295 339 13,100  Level Washington Center
01:24PM 34.9908 -78.8675 83° East 289 333 13,100  Level Washington Center
01:25PM 35.0331 -78.7703 62° Northeast 284 327 13,100 -480 Level Washington Center
01:26PM 35.0686 -78.6828 64° Northeast 284 327 12,200 -1,020 Descending Washington Center
01:26PM 35.0883 -78.6456 57° Northeast 304 350 11,700 -1,080 Descending Washington Center
01:27PM 35.1128 -78.5881 63° Northeast 292 336 11,200 -600 Descending Washington Center
01:28PM 35.1394 -78.5306 60° Northeast 315 362 11,000 -120 Descending Washington Center
01:28PM 35.1547 -78.4956 62° Northeast 302 348 11,100  Climbing Washington Center
01:29PM 35.1814 -78.4331 62° Northeast 306 352 11,000 -120 Descending Washington Center
01:29PM 35.1944 -78.4056 60° Northeast 302 348 11,000 -420 Level Washington Center
01:30PM 35.2186 -78.3506 62° Northeast 300 345 10,600 -960 Descending Washington Center
01:30PM 35.2342 -78.3156 61° Northeast 302 348 10,100 -1,620 Descending Washington Center
01:31PM 35.2606 -78.2528 63° Northeast 311 358 9,000 -1,500 Descending Washington Center
01:31PM 35.2739 -78.2203 63° Northeast 302 348 8,600 -1,380 Descending Washington Center
01:32PM 35.2981 -78.1597 64° Northeast 314 361 7,600 -1,500 Descending Washington Center
01:32PM 35.3156 -78.1247 58° Northeast 302 348 7,100 -1,620 Descending Washington Center
01:33PM 35.3417 -78.0669 61° Northeast 302 348 6,000 -1,380 Descending Washington Center
01:33PM 35.3550 -78.0394 59° Northeast 292 336 5,700 -840 Descending Washington Center
01:34PM 35.3900 -77.9539 63° Northeast 298 343 5,000 -420 Descending Washington Center
01:35PM 35.4269 -77.8758 60° Northeast 283 326 4,900 -600 Descending Washington Center
01:36PM 35.4619 -77.7928 63° Northeast 271 312 3,900 -1,080 Descending Washington Center
01:37PM 35.4947 -77.7147 63° Northeast 259 298 2,900 -840 Descending Washington Center
01:38PM 35.5231 -77.6464 63° Northeast 243 280 2,300 -300 Descending Washington Center
01:39PM 35.5511 -77.5808 62° Northeast 223 257 2,300  Level Washington Center
01:40PM 35.5753 -77.5150 66° East 217 250 2,300 -240 Level Washington Center
01:41PM 35.5931 -77.4414 73° East 217 250 1,900 -360 Descending Washington Center
01:42PM 35.6086 -77.3753 74° East 211 243 1,600 -300 Descending Washington Center